Time;durP1;ratioP1;P1;durP2;ratioP2;P2;SDS_P1;SDS_P2;PMS_P1;PMS_P2;Temp;Humidity;BMP_temperature;BMP_pressure;BME280_temperature;BME280_humidity;BME280_pressure;Samples;Min_cycle;Max_cycle;Signal;HPM_P1;HPM_P2
2022/12/12 00:01:20;;;;;;;;;;;0.20;81.80;;;;;;4965309;28;1141;-72
2022/12/12 00:03:48;;;;;;;;;;;0.20;81.70;;;;;;4962448;28;1364;-71
2022/12/12 00:06:16;;;;;;;;;;;0.20;81.80;;;;;;4967661;28;1050;-70
2022/12/12 00:08:43;;;;;;;;;;;0.20;81.70;;;;;;4959785;28;1993;-69
2022/12/12 00:11:11;;;;;;;;;;;0.10;82.20;;;;;;4966327;28;814;-69
2022/12/12 00:13:39;;;;;;;;;;;0.10;82.10;;;;;;4965889;28;1486;-70
2022/12/12 00:16:08;;;;;;;;;;;0.10;82.30;;;;;;4960676;28;880;-70
2022/12/12 00:18:37;;;;;;;;;;;0.20;82.30;;;;;;4958950;28;1053;-70
2022/12/12 00:21:05;;;;;;;;;;;0.20;82.20;;;;;;4960959;28;1034;-70
2022/12/12 00:23:33;;;;;;;;;;;0.20;81.90;;;;;;4957893;28;1738;-69
2022/12/12 00:26:02;;;;;;;;;;;0.20;82.00;;;;;;4963007;28;1158;-72
2022/12/12 00:28:30;;;;;;;;;;;0.30;82.20;;;;;;4963408;28;1995;-71
2022/12/12 00:30:57;;;;;;;;;;;0.30;82.40;;;;;;4968346;28;1223;-71
2022/12/12 00:33:25;;;;;;;;;;;0.20;82.40;;;;;;4962928;28;1403;-70
2022/12/12 00:35:54;;;;;;;;;;;0.10;82.60;;;;;;4962519;28;1390;-69
2022/12/12 00:38:23;;;;;;;;;;;0.20;82.30;;;;;;4961620;28;1287;-73
2022/12/12 00:40:55;;;;;;;;;;;0.20;82.70;;;;;;4962971;28;1106;-74
2022/12/12 00:43:22;;;;;;;;;;;0.40;82.90;;;;;;4964555;28;1399;-75
2022/12/12 00:45:50;;;;;;;;;;;0.10;82.70;;;;;;4963439;28;1984;-74
2022/12/12 00:48:17;;;;;;;;;;;0.10;82.60;;;;;;4963374;28;1915;-74
2022/12/12 00:50:45;;;;;;;;;;;0.10;83.20;;;;;;4965122;28;1057;-72
2022/12/12 00:53:15;;;;;;;;;;;0.10;83.20;;;;;;4959200;28;1644;-74
2022/12/12 00:55:43;;;;;;;;;;;0.10;83.70;;;;;;4959169;28;1723;-74
2022/12/12 00:58:10;;;;;;;;;;;0.00;83.30;;;;;;4959447;28;1545;-74
2022/12/12 01:00:40;;;;;;;;;;;-0.10;83.50;;;;;;4959514;28;1935;-73
2022/12/12 01:03:07;;;;;;;;;;;-0.10;84.00;;;;;;4964490;28;2144;-73
2022/12/12 01:05:35;;;;;;;;;;;-0.10;83.70;;;;;;4960165;28;2089;-73
2022/12/12 01:08:03;;;;;;;;;;;-0.20;83.60;;;;;;4956549;28;2152;-74
2022/12/12 01:10:32;;;;;;;;;;;-0.40;84.20;;;;;;4960839;28;1966;-73
2022/12/12 01:12:59;;;;;;;;;;;-0.40;85.10;;;;;;4962133;28;2081;-75
2022/12/12 01:15:27;;;;;;;;;;;-0.60;85.30;;;;;;4959743;28;2097;-72
2022/12/12 01:17:54;;;;;;;;;;;-0.60;85.60;;;;;;4963447;28;1990;-76
2022/12/12 01:20:23;;;;;;;;;;;-0.70;85.90;;;;;;4966720;28;1969;-72
2022/12/12 01:22:51;;;;;;;;;;;-0.70;86.00;;;;;;4966007;28;2018;-74
2022/12/12 01:25:19;;;;;;;;;;;-0.80;86.70;;;;;;4965876;28;1126;-70
2022/12/12 01:27:48;;;;;;;;;;;-0.90;86.30;;;;;;4960758;28;1887;-70
2022/12/12 01:30:17;;;;;;;;;;;-0.90;86.30;;;;;;4967745;28;1044;-71
2022/12/12 01:32:45;;;;;;;;;;;-0.90;86.40;;;;;;4969299;28;1374;-71
2022/12/12 01:35:13;;;;;;;;;;;-1.10;86.60;;;;;;4962629;28;1045;-72
2022/12/12 01:37:41;;;;;;;;;;;-0.70;86.70;;;;;;4965995;28;1094;-73
2022/12/12 01:40:12;;;;;;;;;;;-1.10;86.70;;;;;;4964327;28;1068;-74
2022/12/12 01:42:39;;;;;;;;;;;-1.10;87.10;;;;;;4967157;28;1397;-72
2022/12/12 01:45:29;;;;;;;;;;;-1.20;87.30;;;;;;4967245;28;1121;-72
2022/12/12 01:47:56;;;;;;;;;;;-1.20;87.70;;;;;;4965191;28;1984;-72
2022/12/12 01:50:31;;;;;;;;;;;-1.30;87.90;;;;;;4962744;28;1094;-72
2022/12/12 01:52:59;;;;;;;;;;;-1.30;88.10;;;;;;4967217;28;1287;-71
2022/12/12 01:55:26;;;;;;;;;;;-1.30;88.60;;;;;;4966241;28;1151;-72
2022/12/12 01:57:54;;;;;;;;;;;-1.30;88.60;;;;;;4963469;28;2102;-73
2022/12/12 02:00:23;;;;;;;;;;;-1.30;88.60;;;;;;4964820;28;1001;-73
2022/12/12 02:02:52;;;;;;;;;;;-1.30;88.80;;;;;;4965625;28;1983;-74
2022/12/12 02:05:22;;;;;;;;;;;-1.30;88.70;;;;;;4968010;28;1692;-72
2022/12/12 02:07:50;;;;;;;;;;;-1.50;88.60;;;;;;4967453;28;1014;-74
2022/12/12 02:10:18;;;;;;;;;;;-1.50;89.40;;;;;;4966533;28;1915;-74
2022/12/12 02:18:15;;;;;;;;;;;-1.50;89.10;;;;;;5030319;23;1753;-87
2022/12/12 02:20:47;;;;;;;;;;;-1.60;89.50;;;;;;5040641;28;1641;-83
2022/12/12 02:23:30;;;;;;;;;;;-1.60;89.70;;;;;;5041023;28;1162;-86
2022/12/12 02:26:13;;;;;;;;;;;-1.70;89.80;;;;;;5030614;28;1092;-85
2022/12/12 02:29:02;;;;;;;;;;;-1.70;89.70;;;;;;4997740;28;1883;-87
2022/12/12 02:31:34;;;;;;;;;;;-1.70;90.00;;;;;;5037755;28;1101;-85
2022/12/12 02:34:07;;;;;;;;;;;-1.70;90.00;;;;;;5039736;28;1195;-84
2022/12/12 02:36:39;;;;;;;;;;;-1.80;90.10;;;;;;5039512;28;1151;-85
2022/12/12 02:39:09;;;;;;;;;;;-1.80;90.30;;;;;;5038416;28;1463;-83
2022/12/12 02:41:39;;;;;;;;;;;-1.80;90.30;;;;;;5037527;28;1061;-86
2022/12/12 02:44:11;;;;;;;;;;;-1.90;90.40;;;;;;5038585;28;1647;-84
2022/12/12 02:46:43;;;;;;;;;;;-1.90;90.70;;;;;;5037831;28;1160;-85
2022/12/12 02:49:13;;;;;;;;;;;-1.90;90.50;;;;;;5034619;28;2374;-85
2022/12/12 02:51:41;;;;;;;;;;;-1.90;90.60;;;;;;5039465;28;1107;-86
2022/12/12 02:54:13;;;;;;;;;;;-1.80;90.60;;;;;;5039755;28;1105;-87
2022/12/12 02:56:42;;;;;;;;;;;-1.80;90.60;;;;;;5036713;28;1803;-85
2022/12/12 02:59:11;;;;;;;;;;;-1.80;90.80;;;;;;5039316;28;1694;-86
2022/12/12 03:01:47;;;;;;;;;;;-1.80;90.80;;;;;;5038927;28;1346;-87
2022/12/12 03:10:11;;;;;;;;;;;-1.80;90.70;;;;;;4976214;28;1915;-86
2022/12/12 03:12:41;;;;;;;;;;;-1.90;90.80;;;;;;4978301;28;1243;-86
2022/12/12 03:15:13;;;;;;;;;;;-2.00;90.90;;;;;;5008221;28;1371;-83
2022/12/12 03:17:46;;;;;;;;;;;-2.00;91.00;;;;;;5036633;28;1606;-86
2022/12/12 03:20:17;;;;;;;;;;;-1.90;90.90;;;;;;5038766;28;1025;-85
2022/12/12 03:22:48;;;;;;;;;;;-1.90;91.10;;;;;;5038038;28;1077;-85
2022/12/12 03:25:17;;;;;;;;;;;-2.00;91.40;;;;;;5038955;28;1123;-87
2022/12/12 03:27:48;;;;;;;;;;;-2.00;91.30;;;;;;5039029;28;1676;-87
2022/12/12 03:30:17;;;;;;;;;;;-2.00;91.40;;;;;;5038547;28;1883;-86
2022/12/12 03:32:50;;;;;;;;;;;-2.00;91.40;;;;;;5039117;28;1108;-85
2022/12/12 03:35:20;;;;;;;;;;;-2.00;91.20;;;;;;5039401;28;1085;-83
2022/12/12 03:37:51;;;;;;;;;;;-2.00;91.40;;;;;;5039966;28;1610;-86
2022/12/12 03:40:23;;;;;;;;;;;-2.10;91.30;;;;;;5039076;28;1639;-87
2022/12/12 03:42:56;;;;;;;;;;;-2.10;91.50;;;;;;5039018;28;1687;-86
2022/12/12 03:45:26;;;;;;;;;;;-2.20;91.90;;;;;;5033687;28;1101;-85
2022/12/12 03:47:57;;;;;;;;;;;-2.10;91.60;;;;;;5038081;28;1723;-84
2022/12/12 03:50:27;;;;;;;;;;;-2.00;91.70;;;;;;5038080;28;1871;-83
2022/12/12 03:52:56;;;;;;;;;;;-2.20;91.60;;;;;;5038548;28;1127;-84
2022/12/12 03:55:27;;;;;;;;;;;-2.20;91.70;;;;;;5038349;28;1053;-85
2022/12/12 03:57:57;;;;;;;;;;;-2.10;91.60;;;;;;5038473;28;1530;-87
2022/12/12 04:00:26;;;;;;;;;;;-2.40;91.90;;;;;;5038934;28;1033;-85
2022/12/12 04:02:57;;;;;;;;;;;-2.10;91.90;;;;;;5032605;28;1093;-87
2022/12/12 04:05:27;;;;;;;;;;;-2.30;91.90;;;;;;5038347;28;1531;-85
2022/12/12 04:08:00;;;;;;;;;;;-2.30;92.20;;;;;;5038355;28;1316;-87
2022/12/12 04:13:24;;;;;;;;;;;-2.00;92.50;;;;;;5039419;28;1164;-88
2022/12/12 04:16:01;;;;;;;;;;;-2.30;92.40;;;;;;5039456;28;1567;-86
2022/12/12 04:18:36;;;;;;;;;;;-2.30;92.60;;;;;;5038319;28;1540;-84
2022/12/12 04:23:56;;;;;;;;;;;-2.40;92.50;;;;;;5034527;28;1131;-84
2022/12/12 04:26:41;;;;;;;;;;;-2.40;92.50;;;;;;5037998;28;1061;-85
2022/12/12 04:29:15;;;;;;;;;;;-2.40;92.50;;;;;;5035042;28;1381;-84
2022/12/12 04:31:47;;;;;;;;;;;-2.40;92.80;;;;;;5034563;28;1072;-85
2022/12/12 04:34:20;;;;;;;;;;;-2.50;93.00;;;;;;5035297;28;1005;-84
2022/12/12 04:36:49;;;;;;;;;;;-2.50;93.00;;;;;;5038232;28;1041;-84
2022/12/12 04:39:19;;;;;;;;;;;-2.50;92.70;;;;;;5038023;28;1710;-85
2022/12/12 04:41:48;;;;;;;;;;;-2.50;93.00;;;;;;5033362;28;975;-86
2022/12/12 04:44:17;;;;;;;;;;;-2.50;93.00;;;;;;5037894;28;1483;-85
2022/12/12 04:46:47;;;;;;;;;;;-2.40;93.20;;;;;;5042075;28;1041;-84
2022/12/12 04:49:19;;;;;;;;;;;-2.50;93.10;;;;;;5042497;28;1544;-85
2022/12/12 04:51:48;;;;;;;;;;;-2.60;93.10;;;;;;5043005;28;1895;-86
2022/12/12 04:54:19;;;;;;;;;;;-2.60;93.30;;;;;;5042196;28;1683;-85
2022/12/12 04:56:49;;;;;;;;;;;-2.60;93.10;;;;;;5042175;28;1500;-84
2022/12/12 04:59:16;;;;;;;;;;;-2.50;93.20;;;;;;5041587;28;1296;-86
2022/12/12 05:01:46;;;;;;;;;;;-2.60;93.00;;;;;;5041198;28;1671;-85
2022/12/12 05:04:23;;;;;;;;;;;-2.60;93.20;;;;;;5041116;28;1516;-85
2022/12/12 05:06:54;;;;;;;;;;;-2.60;93.20;;;;;;5033597;28;1214;-85
2022/12/12 05:09:22;;;;;;;;;;;-2.60;93.40;;;;;;5036287;28;1767;-88
2022/12/12 05:11:50;;;;;;;;;;;-2.70;93.20;;;;;;5040205;28;1890;-84
2022/12/12 05:14:18;;;;;;;;;;;-2.50;93.10;;;;;;5040222;28;1564;-84
2022/12/12 05:16:47;;;;;;;;;;;-2.70;93.30;;;;;;5036229;28;1501;-84
2022/12/12 05:19:15;;;;;;;;;;;-2.70;93.50;;;;;;5040248;28;1549;-84
2022/12/12 05:21:44;;;;;;;;;;;-2.70;93.00;;;;;;5037020;28;1509;-85
2022/12/12 05:24:11;;;;;;;;;;;-2.40;93.40;;;;;;5040598;28;1143;-87
2022/12/12 05:26:39;;;;;;;;;;;-2.50;93.20;;;;;;5040838;28;1164;-87
2022/12/12 05:29:07;;;;;;;;;;;-2.70;93.10;;;;;;5039934;28;1343;-86
2022/12/12 05:31:35;;;;;;;;;;;-2.70;93.10;;;;;;5038189;28;1968;-87
2022/12/12 05:34:03;;;;;;;;;;;-2.70;93.20;;;;;;5040623;28;1056;-85
2022/12/12 05:36:30;;;;;;;;;;;-2.70;93.10;;;;;;5039853;28;1593;-87
2022/12/12 05:38:59;;;;;;;;;;;-2.70;93.00;;;;;;5039913;28;1327;-86
2022/12/12 05:41:27;;;;;;;;;;;-2.70;93.20;;;;;;5040235;28;1553;-86
2022/12/12 05:43:55;;;;;;;;;;;-2.80;93.00;;;;;;5039353;28;1682;-87
2022/12/12 05:46:23;;;;;;;;;;;-2.80;93.10;;;;;;5040095;28;1675;-85
2022/12/12 05:48:51;;;;;;;;;;;-2.80;93.40;;;;;;5035562;28;1386;-86
2022/12/12 05:51:19;;;;;;;;;;;-2.80;93.20;;;;;;5040680;28;1883;-86
2022/12/12 05:53:47;;;;;;;;;;;-2.80;93.50;;;;;;5036771;28;1175;-85
2022/12/12 05:56:19;;;;;;;;;;;-2.90;93.10;;;;;;5039396;28;1390;-84
2022/12/12 05:58:46;;;;;;;;;;;-2.90;93.50;;;;;;5040854;28;1488;-84
2022/12/12 06:01:14;;;;;;;;;;;-2.90;93.80;;;;;;5039873;28;1543;-85
2022/12/12 06:03:42;;;;;;;;;;;-2.90;93.90;;;;;;5041494;28;902;-86
2022/12/12 06:06:10;;;;;;;;;;;-2.80;94.90;;;;;;5040019;28;1084;-86
2022/12/12 06:08:37;;;;;;;;;;;-2.80;94.60;;;;;;5039117;28;1644;-84
2022/12/12 06:11:06;;;;;;;;;;;-2.80;93.80;;;;;;5033851;28;1952;-82
2022/12/12 06:13:36;;;;;;;;;;;-2.80;93.70;;;;;;5039981;28;1124;-88
2022/12/12 06:16:07;;;;;;;;;;;-2.90;94.10;;;;;;5039960;28;1104;-86
2022/12/12 06:18:35;;;;;;;;;;;-2.90;93.90;;;;;;5039969;28;1387;-87
2022/12/12 06:21:03;;;;;;;;;;;-3.00;93.80;;;;;;5039978;28;923;-87
2022/12/12 06:23:31;;;;;;;;;;;-3.00;94.00;;;;;;5039746;28;1005;-85
2022/12/12 06:25:59;;;;;;;;;;;-3.00;93.90;;;;;;5039657;28;1101;-85
2022/12/12 06:28:26;;;;;;;;;;;-3.00;93.80;;;;;;5040741;28;1696;-87
2022/12/12 06:30:55;;;;;;;;;;;-3.00;93.90;;;;;;5039236;28;1957;-84
2022/12/12 06:33:24;;;;;;;;;;;-2.80;94.20;;;;;;5038983;28;1088;-86
2022/12/12 06:35:59;;;;;;;;;;;-3.00;94.10;;;;;;5037058;28;1044;-84
2022/12/12 06:38:26;;;;;;;;;;;-3.00;94.10;;;;;;5037652;28;1280;-85
2022/12/12 06:40:54;;;;;;;;;;;-3.00;93.80;;;;;;5038214;28;1581;-85
2022/12/12 06:43:21;;;;;;;;;;;-3.00;93.90;;;;;;5036910;28;1599;-86
2022/12/12 06:45:49;;;;;;;;;;;-3.00;94.10;;;;;;5039441;28;1489;-88
2022/12/12 06:48:18;;;;;;;;;;;-3.10;94.10;;;;;;5038575;28;1678;-87
2022/12/12 06:50:46;;;;;;;;;;;-3.30;94.80;;;;;;5039427;28;1960;-88
2022/12/12 06:53:14;;;;;;;;;;;-3.60;94.70;;;;;;5039710;28;1514;-87
2022/12/12 06:55:42;;;;;;;;;;;-3.40;94.60;;;;;;5039510;28;1499;-88
2022/12/12 06:58:10;;;;;;;;;;;-3.50;95.20;;;;;;5038589;28;1241;-88
2022/12/12 07:00:38;;;;;;;;;;;-3.20;95.60;;;;;;5037752;28;1061;-87
2022/12/12 07:03:05;;;;;;;;;;;-3.50;95.20;;;;;;5039491;28;1306;-86
2022/12/12 07:05:35;;;;;;;;;;;-3.50;95.30;;;;;;5028951;28;1123;-88
2022/12/12 07:08:03;;;;;;;;;;;-3.40;95.60;;;;;;5038706;28;1730;-86
2022/12/12 07:10:31;;;;;;;;;;;-3.50;95.40;;;;;;5039722;28;1053;-87
2022/12/12 07:12:59;;;;;;;;;;;-3.40;95.50;;;;;;5039378;28;1962;-87
2022/12/12 07:15:26;;;;;;;;;;;-3.40;95.30;;;;;;5038576;28;1549;-88
2022/12/12 07:17:54;;;;;;;;;;;-3.40;95.20;;;;;;5034325;28;1583;-88
2022/12/12 07:20:21;;;;;;;;;;;-3.50;95.30;;;;;;5032899;28;1057;-88
2022/12/12 07:22:51;;;;;;;;;;;-3.40;95.40;;;;;;5030881;28;1699;-88
2022/12/12 07:25:18;;;;;;;;;;;-3.40;95.50;;;;;;5028882;28;997;-86
2022/12/12 07:27:46;;;;;;;;;;;-3.10;95.70;;;;;;5027215;28;1226;-87
2022/12/12 07:30:17;;;;;;;;;;;-3.40;94.90;;;;;;5027559;28;1635;-85
2022/12/12 07:32:45;;;;;;;;;;;-3.20;95.50;;;;;;5027316;28;1987;-85
2022/12/12 07:35:12;;;;;;;;;;;-3.10;94.80;;;;;;5027023;28;1229;-82
2022/12/12 07:37:40;;;;;;;;;;;-3.00;94.80;;;;;;5020450;28;1320;-85
2022/12/12 07:40:11;;;;;;;;;;;-2.80;94.10;;;;;;5020824;28;1434;-82
2022/12/12 07:42:38;;;;;;;;;;;-3.00;94.30;;;;;;5020155;28;990;-86
2022/12/12 07:45:07;;;;;;;;;;;-2.90;94.00;;;;;;5018220;28;1679;-84
2022/12/12 07:47:37;;;;;;;;;;;-3.00;94.60;;;;;;5015508;28;2333;-84
2022/12/12 07:50:06;;;;;;;;;;;-3.10;94.10;;;;;;5016571;28;1391;-87
2022/12/12 07:52:35;;;;;;;;;;;-3.10;94.20;;;;;;5023235;28;1902;-85
2022/12/12 07:55:02;;;;;;;;;;;-3.10;94.30;;;;;;5028886;28;1065;-83
2022/12/12 07:57:32;;;;;;;;;;;-3.10;93.90;;;;;;5030857;28;1049;-84
2022/12/12 08:00:00;;;;;;;;;;;-3.10;93.90;;;;;;5029582;28;1145;-85
2022/12/12 08:02:27;;;;;;;;;;;-3.00;94.00;;;;;;5018813;28;1040;-86
2022/12/12 08:04:55;;;;;;;;;;;-3.10;93.80;;;;;;5019749;28;1439;-85
2022/12/12 08:07:31;;;;;;;;;;;-3.10;94.10;;;;;;5021746;28;1558;-87
2022/12/12 08:09:59;;;;;;;;;;;-3.00;94.30;;;;;;5027902;28;1516;-89
2022/12/12 08:12:28;;;;;;;;;;;-2.90;93.80;;;;;;5023529;28;1983;-90
2022/12/12 08:14:57;;;;;;;;;;;-2.90;94.30;;;;;;5025285;28;1536;-87
2022/12/12 08:17:25;;;;;;;;;;;-3.00;94.20;;;;;;5034582;28;1477;-88
2022/12/12 08:22:34;;;;;;;;;;;-3.10;94.30;;;;;;4996737;28;1331;-88
2022/12/12 08:25:02;;;;;;;;;;;-3.00;94.20;;;;;;4994134;28;1497;-86
2022/12/12 08:27:30;;;;;;;;;;;-3.00;94.10;;;;;;5030211;28;1520;-87
2022/12/12 08:29:59;;;;;;;;;;;-2.90;94.20;;;;;;5029982;28;1025;-86
2022/12/12 08:32:26;;;;;;;;;;;-2.90;94.30;;;;;;5027985;28;1887;-89
2022/12/12 08:34:56;;;;;;;;;;;-3.00;94.40;;;;;;5030602;28;1543;-87
2022/12/12 08:37:23;;;;;;;;;;;-2.80;94.40;;;;;;5030280;28;1580;-86
2022/12/12 08:39:51;;;;;;;;;;;-2.80;94.10;;;;;;5029142;28;1711;-87
2022/12/12 08:42:22;;;;;;;;;;;-2.60;94.20;;;;;;5033432;28;2495;-87
2022/12/12 08:44:50;;;;;;;;;;;-2.80;94.10;;;;;;5031328;28;1049;-88
2022/12/12 08:47:19;;;;;;;;;;;-2.80;94.20;;;;;;5029365;28;1615;-87
2022/12/12 08:49:47;;;;;;;;;;;-2.70;94.30;;;;;;5030374;28;1406;-87
2022/12/12 08:52:15;;;;;;;;;;;-2.60;93.80;;;;;;5031431;28;1997;-86
2022/12/12 08:54:42;;;;;;;;;;;-2.60;93.90;;;;;;5026016;28;1690;-86
2022/12/12 08:57:10;;;;;;;;;;;-2.60;94.00;;;;;;5040759;28;2364;-86
2022/12/12 08:59:38;;;;;;;;;;;-2.60;94.00;;;;;;5043678;28;1743;-86
2022/12/12 09:02:05;;;;;;;;;;;-2.40;94.30;;;;;;5044349;28;999;-87
2022/12/12 09:04:35;;;;;;;;;;;-2.30;93.90;;;;;;5041257;28;1499;-86
2022/12/12 09:07:02;;;;;;;;;;;-2.50;94.10;;;;;;5036415;28;1506;-88
2022/12/12 09:09:35;;;;;;;;;;;-2.50;94.10;;;;;;5031563;28;1541;-88
2022/12/12 09:12:03;;;;;;;;;;;-2.30;94.30;;;;;;5031808;28;1886;-87
2022/12/12 09:14:30;;;;;;;;;;;-2.30;94.50;;;;;;5030966;28;997;-87
2022/12/12 09:16:58;;;;;;;;;;;-2.30;94.20;;;;;;5031077;28;1910;-87
2022/12/12 09:19:26;;;;;;;;;;;-2.30;94.20;;;;;;5030384;28;1348;-86
2022/12/12 09:21:55;;;;;;;;;;;-2.30;94.50;;;;;;5030161;28;1121;-86
2022/12/12 09:24:24;;;;;;;;;;;-2.20;94.80;;;;;;5033250;28;1054;-86
2022/12/12 09:26:52;;;;;;;;;;;-2.20;94.70;;;;;;5025019;28;1526;-84
2022/12/12 09:29:19;;;;;;;;;;;-2.20;94.50;;;;;;5044318;28;1616;-89
2022/12/12 09:31:47;;;;;;;;;;;-2.20;94.60;;;;;;5027252;28;2493;-89
2022/12/12 09:34:15;;;;;;;;;;;-2.10;94.40;;;;;;5027234;28;1966;-88
2022/12/12 09:36:42;;;;;;;;;;;-1.80;94.60;;;;;;5040185;28;1702;-86
2022/12/12 09:39:12;;;;;;;;;;;-1.90;94.40;;;;;;5028137;28;1535;-87
2022/12/12 09:41:39;;;;;;;;;;;-2.00;94.60;;;;;;5017010;28;1561;-87
2022/12/12 09:44:09;;;;;;;;;;;-2.00;94.10;;;;;;5029257;28;1250;-86
2022/12/12 09:46:39;;;;;;;;;;;-2.00;94.40;;;;;;5023379;28;1676;-88
2022/12/12 09:49:12;;;;;;;;;;;-2.00;94.20;;;;;;5024000;28;1268;-86
2022/12/12 09:51:41;;;;;;;;;;;-2.00;94.50;;;;;;5019399;28;1644;-85
2022/12/12 09:54:12;;;;;;;;;;;-1.90;94.00;;;;;;5024389;28;1984;-86
2022/12/12 09:56:44;;;;;;;;;;;-1.90;94.20;;;;;;5019918;28;2383;-89
2022/12/12 09:59:14;;;;;;;;;;;-1.90;94.10;;;;;;5022825;28;1589;-88
2022/12/12 10:01:52;;;;;;;;;;;-1.70;93.90;;;;;;5024941;28;1567;-87
2022/12/12 10:04:24;;;;;;;;;;;-1.60;94.00;;;;;;5024066;28;1585;-88
2022/12/12 10:06:55;;;;;;;;;;;-1.40;94.00;;;;;;5023666;28;1124;-88
2022/12/12 10:09:31;;;;;;;;;;;-1.30;94.40;;;;;;5028901;28;1352;-88
2022/12/12 10:12:02;;;;;;;;;;;-1.30;94.80;;;;;;5018972;28;947;-87
2022/12/12 10:14:37;;;;;;;;;;;-1.30;94.60;;;;;;5024010;28;1906;-88
2022/12/12 10:17:08;;;;;;;;;;;-1.10;94.50;;;;;;5025250;28;1428;-88
2022/12/12 10:19:43;;;;;;;;;;;-1.00;94.30;;;;;;5025588;28;1701;-89
2022/12/12 10:22:15;;;;;;;;;;;-1.00;94.90;;;;;;5022297;28;1130;-87
2022/12/12 10:24:46;;;;;;;;;;;-0.90;94.50;;;;;;5025105;28;1605;-88
2022/12/12 10:27:15;;;;;;;;;;;-0.80;94.00;;;;;;5024698;28;1666;-88
2022/12/12 10:29:46;;;;;;;;;;;-0.90;94.20;;;;;;5023938;28;1567;-87
2022/12/12 10:32:20;;;;;;;;;;;-0.90;94.60;;;;;;5027673;28;1656;-87
2022/12/12 10:34:54;;;;;;;;;;;-0.90;94.90;;;;;;5027880;28;1972;-89
2022/12/12 10:37:31;;;;;;;;;;;-0.80;95.00;;;;;;5037536;28;1161;-86
2022/12/12 10:40:02;;;;;;;;;;;-0.50;95.30;;;;;;5022438;28;1605;-87
2022/12/12 10:42:34;;;;;;;;;;;-0.90;95.50;;;;;;5022435;28;1025;-86
2022/12/12 10:45:16;;;;;;;;;;;-0.70;95.60;;;;;;5023585;28;1579;-89
2022/12/12 10:47:44;;;;;;;;;;;-0.80;95.20;;;;;;5007565;28;1400;-88
2022/12/12 10:50:18;;;;;;;;;;;-0.80;94.90;;;;;;5023692;28;1683;-88
2022/12/12 10:52:46;;;;;;;;;;;-0.50;95.00;;;;;;5024362;28;2004;-89
2022/12/12 10:55:17;;;;;;;;;;;-0.40;94.20;;;;;;5026035;28;1745;-90
2022/12/12 10:57:47;;;;;;;;;;;-0.90;94.90;;;;;;5014324;28;4209;-86
2022/12/12 11:00:25;;;;;;;;;;;-1.10;95.20;;;;;;5008824;28;1572;-89
2022/12/12 11:02:56;;;;;;;;;;;-1.20;96.40;;;;;;5023739;28;1402;-89
2022/12/12 11:05:34;;;;;;;;;;;-0.90;95.60;;;;;;5022829;28;1564;-88
2022/12/12 11:08:04;;;;;;;;;;;-1.00;95.30;;;;;;5022623;28;1564;-88
2022/12/12 11:10:33;;;;;;;;;;;-0.90;95.30;;;;;;5023900;28;1033;-88
2022/12/12 11:13:12;;;;;;;;;;;-1.00;94.90;;;;;;5027712;28;1895;-91
2022/12/12 11:15:43;;;;;;;;;;;-0.90;94.70;;;;;;5032039;28;1572;-90
2022/12/12 11:21:01;;;;;;;;;;;-0.70;94.40;;;;;;5100833;27;1305;-76
2022/12/12 11:23:29;;;;;;;;;;;-0.50;94.10;;;;;;5098848;28;1692;-75
2022/12/12 11:25:58;;;;;;;;;;;-0.50;93.90;;;;;;5097917;28;1048;-72
2022/12/12 11:28:27;;;;;;;;;;;-0.30;94.00;;;;;;5099914;28;1104;-74
2022/12/12 11:30:56;;;;;;;;;;;-0.30;94.00;;;;;;5099375;28;1660;-75
2022/12/12 11:33:30;;;;;;;;;;;-0.20;93.90;;;;;;5094338;28;1764;-74
2022/12/12 11:36:00;;;;;;;;;;;-0.10;93.60;;;;;;5098072;28;1278;-74
2022/12/12 11:38:30;;;;;;;;;;;-0.10;93.30;;;;;;5102841;28;1084;-74
2022/12/12 11:40:59;;;;;;;;;;;0.00;93.30;;;;;;5099215;28;1914;-75
2022/12/12 11:43:28;;;;;;;;;;;-0.10;93.00;;;;;;5106503;28;1351;-75
2022/12/12 11:46:00;;;;;;;;;;;-0.30;93.20;;;;;;5099911;28;1036;-74
2022/12/12 11:48:31;;;;;;;;;;;-0.30;93.40;;;;;;5101128;28;1386;-75
2022/12/12 11:51:00;;;;;;;;;;;-0.50;93.40;;;;;;5098566;28;1792;-74
2022/12/12 11:53:29;;;;;;;;;;;-0.50;93.50;;;;;;5101127;28;1288;-74
2022/12/12 11:56:01;;;;;;;;;;;-0.50;93.40;;;;;;5102660;28;1120;-75
2022/12/12 11:58:32;;;;;;;;;;;-0.50;93.50;;;;;;5100992;28;1634;-74
2022/12/12 12:01:03;;;;;;;;;;;-0.50;93.40;;;;;;5101537;28;1973;-75
2022/12/12 12:03:36;;;;;;;;;;;-0.50;93.40;;;;;;5107944;28;1665;-76
2022/12/12 12:06:13;;;;;;;;;;;-0.50;93.30;;;;;;5100087;28;1074;-73
2022/12/12 12:08:47;;;;;;;;;;;-0.50;93.40;;;;;;5100324;28;1318;-74
2022/12/12 12:11:19;;;;;;;;;;;-0.30;93.30;;;;;;5100990;28;1011;-74
2022/12/12 12:14:02;;;;;;;;;;;-0.50;93.10;;;;;;5099602;28;1361;-74
2022/12/12 12:16:36;;;;;;;;;;;-0.40;92.90;;;;;;5097452;28;1291;-74
2022/12/12 12:19:10;;;;;;;;;;;-0.40;92.90;;;;;;5098707;28;1910;-74
2022/12/12 12:21:45;;;;;;;;;;;-0.40;92.60;;;;;;5100234;28;1161;-74
2022/12/12 12:24:27;;;;;;;;;;;-0.40;92.80;;;;;;5092743;28;1382;-73
2022/12/12 12:27:01;;;;;;;;;;;-0.30;92.90;;;;;;5102164;28;1099;-75
2022/12/12 12:29:45;;;;;;;;;;;-0.10;93.00;;;;;;5099688;28;1144;-73
2022/12/12 12:32:16;;;;;;;;;;;-0.40;92.40;;;;;;5085105;28;1049;-75
2022/12/12 12:34:52;;;;;;;;;;;-0.30;92.60;;;;;;5085838;28;1723;-74
2022/12/12 12:37:25;;;;;;;;;;;-0.30;92.30;;;;;;5084829;28;1005;-76
2022/12/12 12:40:04;;;;;;;;;;;-0.20;92.20;;;;;;5086629;28;1959;-74
2022/12/12 12:42:40;;;;;;;;;;;-0.30;91.90;;;;;;5084513;28;1518;-75
2022/12/12 12:45:18;;;;;;;;;;;-0.30;91.70;;;;;;5089824;28;1056;-75
2022/12/12 12:47:49;;;;;;;;;;;-0.20;91.20;;;;;;5086782;28;993;-75
2022/12/12 12:50:19;;;;;;;;;;;-0.10;90.80;;;;;;5083303;28;1048;-76
2022/12/12 12:52:51;;;;;;;;;;;-0.10;90.70;;;;;;5079459;28;1474;-75
2022/12/12 12:55:20;;;;;;;;;;;-0.20;90.80;;;;;;5076617;28;1641;-76
2022/12/12 12:57:49;;;;;;;;;;;-0.30;91.00;;;;;;5084218;28;1673;-74
2022/12/12 13:00:18;;;;;;;;;;;-0.30;90.80;;;;;;5082054;28;1896;-74
2022/12/12 13:02:49;;;;;;;;;;;-0.10;90.70;;;;;;5077373;28;1671;-76
2022/12/12 13:05:20;;;;;;;;;;;-0.10;90.60;;;;;;5083434;28;1646;-75
2022/12/12 13:07:52;;;;;;;;;;;-0.20;90.70;;;;;;5082904;28;1680;-74
2022/12/12 13:10:21;;;;;;;;;;;-0.20;91.00;;;;;;5083681;28;1683;-75
2022/12/12 13:12:52;;;;;;;;;;;-0.20;91.10;;;;;;5084313;28;1318;-74
2022/12/12 13:15:22;;;;;;;;;;;-0.20;91.00;;;;;;5084671;28;1546;-75
2022/12/12 13:17:54;;;;;;;;;;;-0.20;91.00;;;;;;5082849;28;1469;-76
2022/12/12 13:20:23;;;;;;;;;;;-0.30;91.10;;;;;;5087017;28;1990;-74
2022/12/12 13:22:59;;;;;;;;;;;0.30;91.00;;;;;;5083412;28;1445;-75
2022/12/12 13:25:32;;;;;;;;;;;0.00;90.80;;;;;;5082736;28;1075;-75
2022/12/12 13:28:00;;;;;;;;;;;0.00;90.50;;;;;;5086775;28;1108;-75
2022/12/12 13:30:34;;;;;;;;;;;-0.10;90.50;;;;;;5080914;28;999;-73
2022/12/12 13:33:08;;;;;;;;;;;-0.20;90.60;;;;;;5086311;28;1667;-74
2022/12/12 13:35:38;;;;;;;;;;;-0.10;90.90;;;;;;5088328;28;950;-73
2022/12/12 13:38:16;;;;;;;;;;;-0.20;91.10;;;;;;5083263;28;1174;-74
2022/12/12 13:40:44;;;;;;;;;;;-0.10;91.00;;;;;;5081560;28;1875;-75
2022/12/12 13:43:26;;;;;;;;;;;-0.10;90.90;;;;;;5076903;28;1641;-74
2022/12/12 13:45:54;;;;;;;;;;;-0.30;91.00;;;;;;5080870;28;1640;-74
2022/12/12 13:48:39;;;;;;;;;;;-0.20;91.20;;;;;;5078397;28;1561;-74
2022/12/12 13:51:36;;;;;;;;;;;-0.20;91.20;;;;;;5079991;28;1146;-74
2022/12/12 13:54:22;;;;;;;;;;;-0.20;91.40;;;;;;5082306;28;1381;-74
2022/12/12 14:00:00;;;;;;;;;;;-0.40;91.60;;;;;;5100122;27;1269;-74
2022/12/12 14:02:30;;;;;;;;;;;-0.30;91.10;;;;;;5080555;28;1653;-76
2022/12/12 14:05:16;;;;;;;;;;;-0.40;91.30;;;;;;5088970;28;1004;-77
2022/12/12 14:07:48;;;;;;;;;;;-0.30;91.40;;;;;;5085015;28;1744;-77
2022/12/12 14:10:23;;;;;;;;;;;-0.40;91.20;;;;;;5076177;28;1097;-76
2022/12/12 14:12:51;;;;;;;;;;;-0.40;91.10;;;;;;5086563;28;2377;-74
2022/12/12 14:15:21;;;;;;;;;;;-0.30;91.10;;;;;;5082207;28;1148;-76
2022/12/12 14:17:57;;;;;;;;;;;-0.50;91.10;;;;;;5075331;28;1981;-76
2022/12/12 14:20:26;;;;;;;;;;;-0.50;91.40;;;;;;5080053;28;1668;-76
2022/12/12 14:23:09;;;;;;;;;;;-0.50;91.50;;;;;;5085455;28;1482;-76
2022/12/12 14:25:38;;;;;;;;;;;-0.50;91.70;;;;;;5083953;28;1109;-77
2022/12/12 14:28:17;;;;;;;;;;;-0.70;91.90;;;;;;5085106;28;1561;-77
2022/12/12 14:30:51;;;;;;;;;;;-0.80;92.20;;;;;;5083935;28;1072;-77
2022/12/12 14:33:32;;;;;;;;;;;-0.70;92.50;;;;;;5081569;28;1398;-76
2022/12/12 14:36:04;;;;;;;;;;;-0.80;92.70;;;;;;5084193;28;1260;-76
2022/12/12 14:38:37;;;;;;;;;;;-0.80;93.10;;;;;;5074174;28;1902;-74
2022/12/12 14:41:10;;;;;;;;;;;-0.90;93.70;;;;;;5078853;28;1501;-76
2022/12/12 14:43:42;;;;;;;;;;;-1.00;93.80;;;;;;5081461;28;1482;-75
2022/12/12 14:46:14;;;;;;;;;;;-1.00;94.10;;;;;;5080883;28;1554;-74
2022/12/12 14:48:43;;;;;;;;;;;-1.00;94.30;;;;;;5089956;28;1353;-75
2022/12/12 14:51:14;;;;;;;;;;;-1.00;94.30;;;;;;5080296;28;1039;-74
2022/12/12 14:53:45;;;;;;;;;;;-1.10;94.40;;;;;;5085360;28;1967;-74
2022/12/12 14:56:15;;;;;;;;;;;-1.10;94.40;;;;;;5080831;28;1530;-75
2022/12/12 14:58:45;;;;;;;;;;;-0.90;94.20;;;;;;5085068;28;1985;-74
2022/12/12 15:01:29;;;;;;;;;;;-1.10;94.10;;;;;;5100628;28;1570;-75
2022/12/12 15:03:59;;;;;;;;;;;-1.20;94.50;;;;;;5098784;28;1655;-74
2022/12/12 15:06:28;;;;;;;;;;;-1.30;94.40;;;;;;5103931;28;1178;-74
2022/12/12 15:08:57;;;;;;;;;;;-1.30;94.50;;;;;;5096660;28;1351;-75
2022/12/12 15:11:27;;;;;;;;;;;-1.40;94.40;;;;;;5084126;28;1018;-73
2022/12/12 15:13:59;;;;;;;;;;;-1.40;94.50;;;;;;5092480;28;1457;-74
2022/12/12 15:16:28;;;;;;;;;;;-1.40;94.60;;;;;;5078686;28;1707;-73